Time;durP1;ratioP1;P1;durP2;ratioP2;P2;SDS_P1;SDS_P2;PMS_P1;PMS_P2;Temp;Humidity;BMP_temperature;BMP_pressure;BME280_temperature;BME280_humidity;BME280_pressure;Samples;Min_cycle;Max_cycle;Signal;HPM_P1;HPM_P2
2023/12/14 00:00:22;;;;;;;1.42;1.10;;;21.10;40.90;;;;;;5030223;28;20041;-59
2023/12/14 00:02:48;;;;;;;0.88;0.68;;;21.10;40.90;;;;;;5028273;28;22136;-58
2023/12/14 00:05:14;;;;;;;0.90;0.80;;;21.10;40.90;;;;;;5027720;28;20014;-59
2023/12/14 00:07:40;;;;;;;1.20;0.90;;;21.00;40.80;;;;;;5037808;28;20513;-59
2023/12/14 00:10:06;;;;;;;0.93;0.70;;;21.00;40.80;;;;;;5007131;28;20091;-58
2023/12/14 00:12:32;;;;;;;0.90;0.80;;;21.10;40.80;;;;;;5029529;28;20026;-60
2023/12/14 00:14:57;;;;;;;1.80;1.10;;;21.00;40.80;;;;;;5027713;28;20026;-59
2023/12/14 00:17:23;;;;;;;0.93;0.80;;;21.00;40.80;;;;;;5028271;28;20043;-57
2023/12/14 00:19:49;;;;;;;1.08;0.80;;;21.00;40.70;;;;;;5026280;28;20427;-59
2023/12/14 00:22:15;;;;;;;0.95;0.75;;;21.00;40.70;;;;;;5027607;28;20133;-61
2023/12/14 00:24:41;;;;;;;2.05;0.80;;;21.00;40.70;;;;;;5024345;28;20025;-57
2023/12/14 00:27:07;;;;;;;1.40;0.77;;;21.00;40.70;;;;;;5026920;28;20113;-60
2023/12/14 00:29:33;;;;;;;1.40;1.17;;;21.00;40.70;;;;;;5026040;28;20109;-60
2023/12/14 00:31:59;;;;;;;1.10;0.95;;;21.00;40.70;;;;;;5019175;28;20025;-58
2023/12/14 00:34:24;;;;;;;0.98;0.85;;;21.00;40.70;;;;;;5027952;28;20053;-60
2023/12/14 00:36:50;;;;;;;1.40;1.00;;;21.00;40.70;;;;;;5025130;28;20037;-60
2023/12/14 00:39:16;;;;;;;1.33;1.00;;;21.00;40.70;;;;;;5024283;28;20037;-58
2023/12/14 00:41:42;;;;;;;1.23;1.00;;;21.00;40.60;;;;;;5006386;28;20053;-60
2023/12/14 00:44:08;;;;;;;0.90;0.80;;;20.90;40.60;;;;;;5023307;28;20018;-57
2023/12/14 00:46:33;;;;;;;0.90;0.70;;;20.90;40.60;;;;;;5020154;28;20428;-58
2023/12/14 00:48:59;;;;;;;1.40;1.00;;;20.90;40.50;;;;;;5023864;28;20041;-60
2023/12/14 00:51:25;;;;;;;0.90;0.90;;;20.90;40.50;;;;;;5023329;28;20112;-57
2023/12/14 00:53:51;;;;;;;1.58;1.08;;;20.90;40.50;;;;;;5027793;28;20035;-58
2023/12/14 00:56:16;;;;;;;1.10;1.00;;;20.90;40.50;;;;;;5022645;28;20030;-57
2023/12/14 00:58:42;;;;;;;1.23;0.93;;;20.90;40.40;;;;;;5031908;28;20022;-59
2023/12/14 01:01:08;;;;;;;1.50;1.00;;;20.90;40.50;;;;;;5030905;28;20457;-59
2023/12/14 01:03:34;;;;;;;1.10;1.00;;;20.90;40.40;;;;;;5028505;28;20109;-60
2023/12/14 01:05:59;;;;;;;3.08;1.00;;;20.90;40.40;;;;;;5040998;28;20060;-60
2023/12/14 01:08:25;;;;;;;1.10;0.98;;;20.90;40.40;;;;;;5029947;28;20581;-56
2023/12/14 01:10:51;;;;;;;1.42;1.10;;;20.90;40.40;;;;;;5029232;28;20025;-58
2023/12/14 01:13:17;;;;;;;1.60;1.00;;;20.90;40.40;;;;;;5025052;28;20329;-58
2023/12/14 01:15:43;;;;;;;1.50;1.00;;;20.90;40.30;;;;;;5026962;28;20083;-59
2023/12/14 01:18:08;;;;;;;1.35;1.00;;;20.90;40.30;;;;;;5026788;28;20037;-58
2023/12/14 01:20:34;;;;;;;1.15;0.90;;;20.90;40.30;;;;;;5032849;28;20030;-60
2023/12/14 01:23:00;;;;;;;1.35;0.70;;;20.90;40.30;;;;;;5038614;28;20033;-59
2023/12/14 01:25:26;;;;;;;1.05;0.93;;;20.90;40.30;;;;;;5029838;28;20032;-59
2023/12/14 01:27:52;;;;;;;1.55;1.20;;;20.90;40.20;;;;;;5021863;28;20033;-56
2023/12/14 01:30:17;;;;;;;0.85;0.65;;;20.90;40.20;;;;;;5027912;28;20025;-58
2023/12/14 01:32:43;;;;;;;0.82;0.70;;;20.80;40.20;;;;;;5025399;28;20060;-59
2023/12/14 01:35:09;;;;;;;1.60;1.02;;;20.80;40.20;;;;;;5024861;28;20048;-60
2023/12/14 01:37:35;;;;;;;1.27;1.00;;;20.80;40.80;;;;;;5027142;28;20037;-57
2023/12/14 01:40:01;;;;;;;2.05;1.02;;;20.90;40.20;;;;;;5031570;28;20103;-59
2023/12/14 01:42:26;;;;;;;1.25;0.73;;;20.80;40.10;;;;;;5023511;28;20028;-60
2023/12/14 01:44:52;;;;;;;1.20;0.68;;;20.80;40.10;;;;;;5026446;28;20029;-60
2023/12/14 01:47:18;;;;;;;0.90;0.85;;;20.80;40.10;;;;;;5027031;28;20036;-58
2023/12/14 01:49:44;;;;;;;1.08;0.90;;;20.80;40.10;;;;;;5029619;28;20033;-59
2023/12/14 01:52:09;;;;;;;0.70;0.70;;;20.80;40.00;;;;;;5025304;28;20113;-58
2023/12/14 01:54:35;;;;;;;1.02;0.70;;;20.80;40.00;;;;;;5024491;28;20022;-61
2023/12/14 01:57:01;;;;;;;1.48;0.68;;;20.80;40.00;;;;;;5028719;28;20041;-60
2023/12/14 01:59:27;;;;;;;1.00;0.70;;;20.80;40.00;;;;;;5029377;28;20064;-58
2023/12/14 02:01:56;;;;;;;1.30;0.90;;;20.80;40.00;;;;;;5030090;28;20025;-57
2023/12/14 02:04:23;;;;;;;0.95;0.85;;;20.80;39.90;;;;;;5029101;28;20041;-58
2023/12/14 02:06:49;;;;;;;1.73;0.82;;;20.80;39.90;;;;;;5031853;28;20426;-61
2023/12/14 02:09:15;;;;;;;0.90;0.70;;;20.80;39.90;;;;;;5021801;28;20100;-56
2023/12/14 02:11:41;;;;;;;0.77;0.75;;;20.70;39.80;;;;;;5028064;28;20476;-59
2023/12/14 02:14:10;;;;;;;0.98;0.70;;;20.80;39.90;;;;;;5031717;28;20032;-58
2023/12/14 02:16:38;;;;;;;1.10;0.88;;;20.80;39.90;;;;;;5031191;28;20033;-59
2023/12/14 02:19:04;;;;;;;1.33;0.95;;;20.70;39.80;;;;;;5027295;28;20050;-59
2023/12/14 02:21:30;;;;;;;0.93;0.73;;;20.80;39.80;;;;;;5030722;28;20041;-57
2023/12/14 02:23:56;;;;;;;0.75;0.70;;;20.70;39.80;;;;;;5025664;28;20032;-58
2023/12/14 02:26:22;;;;;;;0.75;0.75;;;20.70;39.80;;;;;;5029211;28;20384;-60
2023/12/14 02:28:48;;;;;;;0.50;0.50;;;20.70;39.80;;;;;;5025140;28;20084;-57
2023/12/14 02:31:14;;;;;;;1.52;0.95;;;20.70;39.80;;;;;;5027305;28;20040;-59
2023/12/14 02:33:40;;;;;;;1.00;0.80;;;20.70;39.70;;;;;;5024815;28;20364;-57
2023/12/14 02:36:06;;;;;;;0.77;0.75;;;20.70;39.70;;;;;;5027803;28;20116;-61
2023/12/14 02:38:33;;;;;;;1.02;0.93;;;20.70;39.70;;;;;;5030372;28;20116;-59
2023/12/14 02:40:58;;;;;;;0.90;0.80;;;20.70;39.70;;;;;;5028954;28;20104;-61
2023/12/14 02:43:24;;;;;;;0.90;0.60;;;20.70;39.70;;;;;;5025481;28;20114;-60
2023/12/14 02:45:50;;;;;;;0.77;0.73;;;20.70;39.70;;;;;;5026940;28;20395;-56
2023/12/14 02:48:16;;;;;;;0.77;0.77;;;20.70;39.70;;;;;;5025905;28;20033;-56
2023/12/14 02:50:42;;;;;;;1.40;1.00;;;20.70;39.70;;;;;;5021925;28;20021;-59
2023/12/14 02:53:08;;;;;;;0.90;0.73;;;20.70;39.80;;;;;;5025695;28;20059;-59
2023/12/14 02:55:33;;;;;;;1.50;1.08;;;20.70;39.70;;;;;;5035732;28;20738;-56
2023/12/14 02:57:59;;;;;;;1.92;0.82;;;20.60;39.70;;;;;;5031938;28;20037;-59
2023/12/14 03:00:25;;;;;;;1.00;0.90;;;20.60;39.60;;;;;;5027957;28;20409;-54
2023/12/14 03:02:51;;;;;;;1.00;0.90;;;20.60;39.60;;;;;;5028110;28;20052;-57
2023/12/14 03:05:16;;;;;;;1.02;0.70;;;20.60;39.60;;;;;;5036724;28;20031;-59
2023/12/14 03:07:42;;;;;;;1.10;1.00;;;20.60;39.60;;;;;;5037945;28;20018;-60
2023/12/14 03:10:08;;;;;;;1.13;0.98;;;20.60;39.60;;;;;;5026891;28;20030;-59
2023/12/14 03:12:34;;;;;;;0.90;0.80;;;20.60;39.60;;;;;;5025187;28;20026;-57
2023/12/14 03:15:00;;;;;;;1.60;0.88;;;20.60;39.50;;;;;;5027853;28;20388;-59
2023/12/14 03:17:26;;;;;;;0.93;0.80;;;20.60;39.50;;;;;;5023260;28;20057;-56
2023/12/14 03:19:51;;;;;;;1.30;0.90;;;20.60;39.50;;;;;;5028132;28;20065;-61
2023/12/14 03:22:17;;;;;;;0.82;0.75;;;20.60;39.50;;;;;;5023885;28;20056;-60
2023/12/14 03:24:43;;;;;;;0.93;0.70;;;20.60;39.50;;;;;;5024638;28;20104;-57
2023/12/14 03:27:09;;;;;;;1.15;0.70;;;20.60;39.40;;;;;;5025967;28;20022;-59
2023/12/14 03:29:35;;;;;;;1.10;0.90;;;20.60;39.40;;;;;;5027400;28;20022;-60
2023/12/14 03:32:01;;;;;;;0.77;0.77;;;20.60;39.40;;;;;;5020894;28;20052;-60
2023/12/14 03:34:27;;;;;;;1.17;0.75;;;20.60;39.40;;;;;;5029163;28;20079;-59
2023/12/14 03:36:52;;;;;;;0.80;0.77;;;20.60;39.40;;;;;;5018776;28;20662;-58
2023/12/14 03:39:18;;;;;;;1.33;0.77;;;20.60;39.40;;;;;;5027372;28;20180;-59
2023/12/14 03:41:44;;;;;;;0.60;0.60;;;20.60;39.40;;;;;;5025252;28;20025;-55
2023/12/14 03:44:10;;;;;;;0.60;0.60;;;20.60;39.30;;;;;;5027675;28;20029;-59
2023/12/14 03:46:36;;;;;;;1.00;0.50;;;20.60;39.40;;;;;;5026877;28;20022;-58
2023/12/14 03:49:03;;;;;;;0.82;0.68;;;20.60;39.30;;;;;;5028853;28;20359;-59
2023/12/14 03:51:29;;;;;;;0.60;0.50;;;20.60;39.30;;;;;;5027102;28;20030;-59
2023/12/14 03:53:55;;;;;;;0.77;0.77;;;20.50;39.30;;;;;;5026854;28;20025;-60
2023/12/14 03:56:22;;;;;;;0.80;0.70;;;20.50;39.20;;;;;;5027640;28;20515;-57
2023/12/14 03:58:48;;;;;;;0.95;0.70;;;20.50;39.20;;;;;;5027187;28;20061;-57
2023/12/14 04:01:18;;;;;;;0.60;0.50;;;20.50;39.30;;;;;;5029974;28;20049;-57
2023/12/14 04:03:44;;;;;;;0.60;0.60;;;20.50;39.20;;;;;;5029038;28;20029;-57
2023/12/14 04:06:11;;;;;;;0.60;0.60;;;20.50;39.20;;;;;;5025928;28;20017;-57
2023/12/14 04:08:37;;;;;;;0.70;0.70;;;20.50;39.20;;;;;;5023782;28;20038;-60
2023/12/14 04:11:03;;;;;;;0.60;0.60;;;20.50;39.20;;;;;;5029102;28;20026;-56
2023/12/14 04:13:29;;;;;;;0.70;0.63;;;20.50;39.20;;;;;;5019501;28;20025;-59
2023/12/14 04:15:55;;;;;;;0.80;0.70;;;20.50;39.20;;;;;;5032763;28;20029;-57
2023/12/14 04:18:20;;;;;;;0.70;0.70;;;20.50;39.10;;;;;;5023032;28;20437;-59
2023/12/14 04:20:46;;;;;;;0.85;0.65;;;20.50;39.10;;;;;;5027292;28;20076;-60
2023/12/14 04:23:12;;;;;;;0.60;0.60;;;20.40;39.10;;;;;;5033524;28;20022;-57
2023/12/14 04:25:38;;;;;;;0.50;0.50;;;20.50;39.10;;;;;;5023123;28;20052;-56
2023/12/14 04:28:04;;;;;;;0.60;0.60;;;20.50;39.10;;;;;;5026164;28;20024;-60
2023/12/14 04:30:29;;;;;;;0.70;0.70;;;20.50;39.00;;;;;;5025042;28;20445;-61
2023/12/14 04:32:55;;;;;;;0.63;0.63;;;20.50;39.10;;;;;;5032399;28;20377;-58
2023/12/14 04:35:22;;;;;;;0.70;0.60;;;20.50;39.10;;;;;;5030940;28;20468;-60
2023/12/14 04:37:48;;;;;;;1.02;0.80;;;20.50;39.10;;;;;;5031864;28;20041;-60
2023/12/14 04:40:14;;;;;;;2.05;0.70;;;20.50;39.00;;;;;;5021894;28;20622;-61
2023/12/14 04:42:40;;;;;;;0.70;0.60;;;20.40;39.00;;;;;;5030844;28;20060;-59
2023/12/14 04:45:08;;;;;;;0.60;0.60;;;20.50;39.10;;;;;;5031254;28;20117;-58
2023/12/14 04:47:35;;;;;;;1.10;0.82;;;20.40;39.10;;;;;;5024289;28;20352;-59
2023/12/14 04:50:01;;;;;;;0.60;0.50;;;20.40;39.10;;;;;;5015897;28;20476;-58
2023/12/14 04:52:27;;;;;;;1.13;0.77;;;20.50;39.10;;;;;;5028495;28;20021;-58
2023/12/14 04:54:52;;;;;;;0.47;0.47;;;20.50;39.10;;;;;;5029889;28;20025;-59
2023/12/14 04:57:18;;;;;;;0.63;0.55;;;20.50;39.10;;;;;;5032859;28;20021;-59
2023/12/14 04:59:44;;;;;;;0.57;0.52;;;20.50;39.00;;;;;;5030090;28;20025;-57
2023/12/14 05:02:10;;;;;;;0.77;0.60;;;20.40;39.00;;;;;;5037649;28;20025;-60
2023/12/14 05:04:36;;;;;;;0.50;0.50;;;20.40;39.00;;;;;;5032465;28;20452;-61
2023/12/14 05:07:02;;;;;;;0.70;0.68;;;20.40;39.00;;;;;;5028025;28;20036;-57
2023/12/14 05:09:28;;;;;;;1.33;0.73;;;20.40;39.00;;;;;;5027705;28;20452;-59
2023/12/14 05:11:54;;;;;;;0.70;0.70;;;20.40;39.00;;;;;;5025773;28;20108;-58
2023/12/14 05:14:19;;;;;;;0.85;0.70;;;20.40;39.00;;;;;;5027097;28;20417;-59
2023/12/14 05:16:45;;;;;;;0.70;0.65;;;20.40;39.00;;;;;;5026915;28;20124;-58
2023/12/14 05:19:12;;;;;;;0.70;0.70;;;20.40;39.60;;;;;;5028681;28;20108;-59
2023/12/14 05:21:38;;;;;;;1.00;0.90;;;20.40;39.00;;;;;;5025651;28;20111;-58
2023/12/14 05:24:05;;;;;;;1.45;0.70;;;20.40;38.90;;;;;;5030150;28;20045;-60
2023/12/14 05:26:30;;;;;;;1.05;0.90;;;20.40;38.90;;;;;;5029392;28;20021;-58
2023/12/14 05:28:56;;;;;;;1.20;0.95;;;20.40;39.00;;;;;;5026272;28;20433;-56
2023/12/14 05:31:22;;;;;;;1.38;0.68;;;20.40;38.90;;;;;;5031312;28;20021;-58
2023/12/14 05:33:48;;;;;;;0.90;0.70;;;20.40;38.90;;;;;;5029955;28;20029;-59
2023/12/14 05:36:14;;;;;;;0.60;0.60;;;20.40;38.90;;;;;;5030716;28;20033;-57
2023/12/14 05:38:41;;;;;;;1.13;0.80;;;20.40;38.90;;;;;;5028990;28;20433;-58
2023/12/14 05:41:07;;;;;;;0.60;0.60;;;20.40;38.80;;;;;;5032766;28;20018;-59
2023/12/14 05:43:33;;;;;;;0.95;0.77;;;20.30;38.80;;;;;;5029184;28;20045;-59
2023/12/14 05:45:59;;;;;;;1.13;0.82;;;20.30;38.80;;;;;;5033722;28;20021;-60
2023/12/14 05:48:26;;;;;;;1.25;0.80;;;20.40;38.80;;;;;;5031616;28;20076;-59
2023/12/14 05:50:52;;;;;;;0.65;0.65;;;20.30;38.80;;;;;;5027739;28;20040;-60
2023/12/14 05:53:18;;;;;;;0.95;0.70;;;20.30;38.80;;;;;;5023769;28;20049;-60
2023/12/14 05:55:44;;;;;;;1.05;0.70;;;20.30;38.80;;;;;;5026694;28;20038;-59
2023/12/14 05:58:10;;;;;;;0.90;0.60;;;20.30;38.80;;;;;;5026826;28;20113;-57
2023/12/14 06:00:36;;;;;;;0.75;0.65;;;20.30;38.80;;;;;;5028521;28;20120;-57
2023/12/14 06:03:02;;;;;;;0.98;0.80;;;20.30;38.80;;;;;;5021707;28;20547;-58
2023/12/14 06:05:28;;;;;;;0.80;0.80;;;20.30;38.80;;;;;;5030319;28;20036;-62
2023/12/14 06:07:54;;;;;;;1.00;0.63;;;20.30;38.80;;;;;;5024589;28;20395;-58
2023/12/14 06:10:21;;;;;;;0.85;0.50;;;20.30;38.90;;;;;;5023283;28;20088;-58
2023/12/14 06:12:47;;;;;;;0.50;0.50;;;20.30;38.90;;;;;;5027767;28;20091;-60
2023/12/14 06:15:13;;;;;;;0.80;0.70;;;20.30;38.90;;;;;;5026249;28;20112;-57
2023/12/14 06:17:41;;;;;;;0.73;0.63;;;20.30;38.80;;;;;;5029252;28;20412;-58
2023/12/14 06:20:10;;;;;;;0.68;0.52;;;20.30;38.80;;;;;;5027741;28;20147;-59
2023/12/14 06:22:39;;;;;;;0.90;0.70;;;20.30;38.80;;;;;;5022199;28;20021;-57
2023/12/14 06:25:05;;;;;;;1.05;0.63;;;20.30;38.80;;;;;;5026535;28;20040;-58
2023/12/14 06:27:31;;;;;;;0.75;0.70;;;20.30;38.80;;;;;;5030755;28;21589;-58
2023/12/14 06:29:57;;;;;;;0.65;0.65;;;20.30;38.80;;;;;;5027047;28;20040;-51
2023/12/14 06:32:23;;;;;;;1.23;0.70;;;20.30;38.80;;;;;;5026215;28;20079;-59
2023/12/14 06:34:49;;;;;;;0.60;0.60;;;20.30;38.80;;;;;;5039608;28;20030;-57
2023/12/14 06:37:14;;;;;;;1.20;0.65;;;20.20;38.70;;;;;;5023788;28;20058;-60
2023/12/14 06:39:43;;;;;;;0.88;0.68;;;20.30;38.70;;;;;;5025231;28;20037;-59
2023/12/14 06:42:09;;;;;;;2.45;0.90;;;20.30;38.70;;;;;;5045623;28;20025;-59
2023/12/14 06:44:35;;;;;;;0.70;0.70;;;20.30;38.70;;;;;;5029051;28;20021;-59
2023/12/14 06:47:01;;;;;;;0.70;0.60;;;20.30;38.70;;;;;;5036514;28;20037;-57
2023/12/14 06:49:27;;;;;;;0.73;0.70;;;20.30;38.70;;;;;;5029042;28;20021;-59
2023/12/14 06:51:53;;;;;;;0.82;0.68;;;20.20;38.60;;;;;;5032078;28;20498;-53
2023/12/14 06:54:19;;;;;;;0.93;0.55;;;20.30;38.70;;;;;;5024332;28;20036;-59
2023/12/14 06:56:45;;;;;;;1.13;0.60;;;20.30;38.60;;;;;;5012628;28;20421;-57
2023/12/14 06:59:10;;;;;;;0.70;0.70;;;20.20;38.60;;;;;;5035630;28;20411;-60
2023/12/14 07:01:36;;;;;;;1.45;0.70;;;20.20;38.50;;;;;;5027590;28;20105;-59
2023/12/14 07:04:05;;;;;;;0.80;0.77;;;20.20;38.50;;;;;;5025836;28;20345;-59
2023/12/14 07:06:30;;;;;;;0.70;0.60;;;20.20;38.40;;;;;;5028282;28;20021;-59
2023/12/14 07:08:56;;;;;;;0.93;0.77;;;20.20;38.40;;;;;;5028409;28;20440;-58
2023/12/14 07:11:22;;;;;;;0.70;0.52;;;20.20;38.40;;;;;;5020315;28;20083;-58
2023/12/14 07:13:48;;;;;;;0.40;0.40;;;20.20;38.40;;;;;;5010559;28;20025;-58
2023/12/14 07:16:14;;;;;;;1.05;0.70;;;20.20;38.40;;;;;;5023779;28;20113;-59
2023/12/14 07:18:44;;;;;;;0.88;0.68;;;20.20;38.30;;;;;;5023139;28;20132;-59
2023/12/14 07:21:10;;;;;;;1.38;0.60;;;20.20;38.30;;;;;;5031726;28;20451;-57
2023/12/14 07:23:37;;;;;;;0.75;0.70;;;20.20;38.30;;;;;;5027672;28;20436;-58
2023/12/14 07:26:03;;;;;;;0.95;0.50;;;20.20;38.20;;;;;;5025716;28;20068;-58
2023/12/14 07:28:29;;;;;;;0.80;0.63;;;20.20;38.20;;;;;;5026848;28;20061;-57
2023/12/14 07:30:55;;;;;;;0.55;0.50;;;20.20;38.20;;;;;;5030339;28;20048;-55
2023/12/14 07:33:21;;;;;;;0.80;0.50;;;20.20;38.20;;;;;;5021282;28;20034;-59
2023/12/14 07:35:46;;;;;;;0.77;0.60;;;20.20;38.30;;;;;;5023453;28;20026;-57
2023/12/14 07:38:12;;;;;;;0.90;0.55;;;20.20;38.30;;;;;;5022483;28;20464;-56
2023/12/14 07:40:39;;;;;;;1.45;0.50;;;20.10;38.30;;;;;;5023099;28;20432;-58
2023/12/14 07:43:05;;;;;;;0.95;0.60;;;20.10;38.30;;;;;;5025541;28;20021;-60
2023/12/14 07:45:31;;;;;;;0.70;0.60;;;20.10;38.30;;;;;;5021398;28;20031;-59
2023/12/14 07:47:57;;;;;;;1.02;0.65;;;20.20;38.40;;;;;;5023715;28;20042;-57
2023/12/14 07:50:23;;;;;;;0.68;0.60;;;20.10;39.00;;;;;;5024580;28;20026;-58
2023/12/14 07:52:49;;;;;;;1.00;0.50;;;20.10;38.30;;;;;;5022220;28;20037;-55
2023/12/14 07:55:14;;;;;;;0.80;0.60;;;20.10;38.30;;;;;;5028054;28;20025;-58
2023/12/14 07:57:40;;;;;;;0.93;0.63;;;20.10;38.30;;;;;;5016544;28;20048;-59
2023/12/14 08:00:10;;;;;;;0.50;0.50;;;20.10;38.30;;;;;;5024043;28;20033;-58
2023/12/14 08:02:36;;;;;;;0.88;0.85;;;20.10;38.30;;;;;;5025525;28;20087;-57
2023/12/14 08:05:02;;;;;;;0.88;0.50;;;20.10;38.30;;;;;;5019698;28;20022;-57
2023/12/14 08:07:29;;;;;;;0.70;0.60;;;20.10;38.20;;;;;;5032278;28;20044;-59
2023/12/14 08:09:55;;;;;;;0.65;0.43;;;20.10;38.20;;;;;;5033582;28;20069;-59
2023/12/14 08:12:22;;;;;;;1.17;0.70;;;20.10;38.20;;;;;;5022785;28;20022;-57
2023/12/14 08:14:48;;;;;;;0.57;0.50;;;20.10;38.10;;;;;;5020550;28;20033;-56
2023/12/14 08:17:14;;;;;;;0.43;0.40;;;20.10;38.10;;;;;;5028694;28;20033;-60
2023/12/14 08:19:40;;;;;;;2.22;0.50;;;20.10;38.10;;;;;;5032493;28;20045;-58
2023/12/14 08:22:07;;;;;;;0.98;0.40;;;20.10;38.00;;;;;;5028881;28;20489;-57
2023/12/14 08:24:33;;;;;;;0.75;0.60;;;20.10;38.00;;;;;;5020299;28;20099;-58
2023/12/14 08:26:59;;;;;;;0.57;0.50;;;20.10;38.00;;;;;;5024025;28;20017;-61
2023/12/14 08:29:24;;;;;;;1.63;0.80;;;20.10;38.10;;;;;;5028549;28;20522;-59
2023/12/14 08:31:50;;;;;;;1.90;0.60;;;20.10;38.00;;;;;;5036318;28;20068;-59
2023/12/14 08:34:16;;;;;;;1.27;0.70;;;20.10;38.10;;;;;;5039517;28;20025;-58
2023/12/14 08:36:42;;;;;;;1.55;0.68;;;20.10;38.10;;;;;;5040979;28;20025;-58
2023/12/14 08:39:08;;;;;;;1.42;0.80;;;20.10;38.10;;;;;;5034556;28;20049;-56
2023/12/14 08:41:34;;;;;;;0.77;0.60;;;20.10;38.00;;;;;;5023510;28;20398;-60
2023/12/14 08:43:59;;;;;;;1.35;0.50;;;20.10;37.90;;;;;;5031915;28;20140;-59
2023/12/14 08:46:25;;;;;;;1.00;0.70;;;20.20;37.80;;;;;;5026190;28;20076;-57
2023/12/14 08:48:51;;;;;;;0.90;0.50;;;20.20;37.70;;;;;;5031227;28;20025;-55
2023/12/14 08:51:19;;;;;;;1.10;0.60;;;20.20;37.60;;;;;;5028194;28;20036;-57
2023/12/14 08:53:44;;;;;;;1.70;0.63;;;20.30;37.60;;;;;;5027502;28;20032;-56
2023/12/14 08:56:10;;;;;;;1.85;0.40;;;20.30;37.60;;;;;;5030621;28;20022;-57
2023/12/14 08:58:36;;;;;;;1.70;0.70;;;20.30;37.60;;;;;;5028941;28;20037;-57
2023/12/14 09:01:02;;;;;;;1.23;0.63;;;20.30;37.60;;;;;;5028426;28;20034;-58
2023/12/14 09:03:28;;;;;;;0.70;0.60;;;20.40;37.60;;;;;;5032054;28;20387;-56
2023/12/14 09:05:53;;;;;;;1.00;0.80;;;20.40;37.50;;;;;;5038644;28;20040;-56
2023/12/14 09:08:19;;;;;;;1.08;0.73;;;20.40;37.50;;;;;;5031190;28;20061;-56
2023/12/14 09:10:45;;;;;;;1.05;0.60;;;20.40;37.40;;;;;;5031069;28;20029;-54
2023/12/14 09:13:11;;;;;;;1.05;0.65;;;20.40;37.30;;;;;;5021966;28;20026;-57
2023/12/14 09:15:36;;;;;;;0.57;0.50;;;20.40;37.20;;;;;;5027221;28;20026;-60
2023/12/14 09:18:02;;;;;;;0.85;0.52;;;20.50;37.20;;;;;;5026124;28;20041;-60
2023/12/14 09:20:28;;;;;;;0.88;0.50;;;20.50;37.20;;;;;;5027118;28;20048;-59
2023/12/14 09:22:54;;;;;;;1.45;0.73;;;20.50;37.10;;;;;;5029419;28;20378;-60
2023/12/14 09:25:20;;;;;;;1.00;0.63;;;20.50;37.00;;;;;;5033892;28;20083;-58
2023/12/14 09:27:46;;;;;;;0.95;0.60;;;20.50;36.90;;;;;;5031850;28;20064;-60
2023/12/14 09:30:12;;;;;;;0.60;0.50;;;20.60;36.90;;;;;;5027710;28;20544;-57
2023/12/14 09:32:39;;;;;;;0.82;0.52;;;20.60;36.90;;;;;;5030329;28;20087;-53
2023/12/14 09:35:06;;;;;;;0.63;0.50;;;20.60;36.80;;;;;;5026605;28;20362;-54
2023/12/14 09:37:32;;;;;;;0.60;0.60;;;20.60;36.80;;;;;;5036307;28;20100;-57
2023/12/14 09:39:58;;;;;;;0.80;0.50;;;20.60;36.70;;;;;;5032752;28;20113;-57
2023/12/14 09:42:24;;;;;;;1.10;0.80;;;20.60;36.80;;;;;;5035264;28;20052;-56
2023/12/14 09:44:52;;;;;;;1.08;0.60;;;20.60;36.70;;;;;;5034924;28;20029;-57
2023/12/14 09:47:18;;;;;;;0.73;0.50;;;20.60;36.70;;;;;;5019369;28;20037;-57
2023/12/14 09:49:45;;;;;;;1.05;0.70;;;20.60;36.60;;;;;;5030652;28;20022;-57
2023/12/14 09:52:11;;;;;;;0.80;0.40;;;20.70;36.70;;;;;;5027596;28;20416;-58
2023/12/14 09:54:37;;;;;;;1.20;0.68;;;20.70;36.60;;;;;;5031020;28;20037;-55
2023/12/14 09:57:03;;;;;;;1.27;0.70;;;20.70;36.70;;;;;;5029604;28;20116;-56
2023/12/14 09:59:29;;;;;;;0.63;0.50;;;20.70;36.60;;;;;;5026137;28;20114;-58
2023/12/14 10:02:12;;;;;;;1.02;0.70;;;20.70;36.60;;;;;;5024720;28;20669;-59
2023/12/14 10:04:38;;;;;;;0.88;0.70;;;20.70;36.60;;;;;;5017678;28;20040;-55
2023/12/14 10:07:06;;;;;;;0.88;0.70;;;20.60;36.50;;;;;;5025063;28;20033;-60
2023/12/14 10:09:34;;;;;;;1.13;0.60;;;20.70;36.60;;;;;;5027321;28;20326;-58
2023/12/14 10:12:08;;;;;;;0.75;0.50;;;20.70;36.60;;;;;;5025202;28;20091;-57
2023/12/14 10:14:35;;;;;;;0.70;0.50;;;20.70;36.60;;;;;;5025846;28;20455;-67
2023/12/14 10:17:21;;;;;;;0.68;0.60;;;20.70;36.60;;;;;;5029453;28;20416;-58
2023/12/14 10:19:50;;;;;;;0.82;0.60;;;20.70;36.60;;;;;;5021723;28;20049;-58
2023/12/14 10:22:17;;;;;;;0.88;0.52;;;20.70;36.60;;;;;;5026567;28;20025;-57
2023/12/14 10:24:49;;;;;;;0.63;0.45;;;20.70;36.60;;;;;;5021217;28;20105;-56
2023/12/14 10:27:16;;;;;;;1.02;0.60;;;20.70;36.70;;;;;;5031635;28;20091;-59
2023/12/14 10:29:44;;;;;;;0.95;0.60;;;20.70;36.70;;;;;;5020804;28;20041;-58
2023/12/14 10:32:11;;;;;;;1.10;0.60;;;20.70;36.80;;;;;;5032556;28;20367;-58
2023/12/14 10:34:37;;;;;;;0.93;0.70;;;20.70;36.80;;;;;;5023808;28;20082;-59
2023/12/14 10:37:09;;;;;;;0.98;0.80;;;20.70;36.80;;;;;;5032190;28;20061;-57
2023/12/14 10:39:37;;;;;;;0.60;0.50;;;20.70;36.80;;;;;;5029405;28;20037;-56
2023/12/14 10:42:04;;;;;;;1.48;0.73;;;20.70;36.80;;;;;;5031175;28;20036;-57
2023/12/14 10:44:34;;;;;;;0.82;0.60;;;20.70;36.80;;;;;;5028438;28;20048;-56
2023/12/14 10:47:02;;;;;;;1.27;0.70;;;20.70;36.90;;;;;;5028493;28;20025;-59
2023/12/14 10:49:29;;;;;;;1.20;0.63;;;20.70;36.90;;;;;;5030881;28;20049;-58
2023/12/14 10:51:57;;;;;;;1.00;0.50;;;20.70;36.90;;;;;;5030277;28;20372;-58
2023/12/14 10:54:25;;;;;;;0.93;0.57;;;20.70;36.90;;;;;;5029805;28;20440;-60
2023/12/14 10:56:58;;;;;;;0.57;0.40;;;20.70;36.90;;;;;;5026935;28;20104;-57
2023/12/14 10:59:25;;;;;;;1.88;0.60;;;20.70;36.90;;;;;;5030224;28;20125;-58
2023/12/14 11:01:54;;;;;;;0.80;0.60;;;20.70;36.90;;;;;;5020867;28;20463;-60
2023/12/14 11:04:27;;;;;;;0.88;0.50;;;20.70;36.90;;;;;;5022731;28;20347;-59
2023/12/14 11:06:54;;;;;;;0.52;0.50;;;20.70;37.00;;;;;;5028694;28;20041;-58
2023/12/14 11:09:23;;;;;;;0.77;0.47;;;20.70;37.00;;;;;;5027107;28;20037;-57
2023/12/14 11:11:57;;;;;;;0.60;0.40;;;20.70;37.00;;;;;;5032149;28;20029;-56
2023/12/14 11:14:26;;;;;;;1.63;0.50;;;20.70;37.00;;;;;;5027629;28;20029;-62
2023/12/14 11:17:06;;;;;;;1.08;0.50;;;20.80;37.10;;;;;;5027521;28;20053;-56
2023/12/14 11:19:32;;;;;;;0.88;0.50;;;20.90;37.10;;;;;;5030419;28;20099;-55
2023/12/14 11:22:24;;;;;;;1.13;0.43;;;21.00;37.10;;;;;;5029676;28;20488;-55
2023/12/14 11:24:56;;;;;;;0.93;0.60;;;21.10;37.10;;;;;;5031195;28;20037;-54
2023/12/14 11:27:31;;;;;;;1.27;0.75;;;21.20;37.00;;;;;;5025681;28;20101;-54
2023/12/14 11:29:58;;;;;;;0.77;0.57;;;21.30;37.00;;;;;;5026164;28;20033;-57
2023/12/14 11:32:25;;;;;;;0.65;0.50;;;21.40;37.00;;;;;;5027680;28;20029;-61
2023/12/14 11:34:51;;;;;;;0.95;0.60;;;21.40;36.90;;;;;;5029469;28;20029;-55
2023/12/14 11:37:16;;;;;;;0.73;0.60;;;21.50;36.90;;;;;;5024083;28;20033;-55
2023/12/14 11:39:43;;;;;;;0.85;0.50;;;21.50;36.80;;;;;;5028936;28;20083;-50
2023/12/14 11:42:10;;;;;;;0.75;0.65;;;21.60;36.80;;;;;;5025451;28;20036;-52
2023/12/14 11:44:37;;;;;;;1.10;0.70;;;21.70;36.80;;;;;;5025222;28;20031;-57
2023/12/14 11:47:03;;;;;;;0.75;0.60;;;21.70;36.70;;;;;;5026747;28;20504;-52
2023/12/14 11:49:30;;;;;;;0.95;0.50;;;21.80;36.70;;;;;;5028213;28;20112;-56
2023/12/14 11:51:56;;;;;;;1.35;0.65;;;21.80;36.60;;;;;;5026891;28;20051;-56
2023/12/14 11:54:22;;;;;;;0.65;0.50;;;21.80;36.50;;;;;;5035554;28;20083;-58
2023/12/14 11:56:49;;;;;;;0.40;0.40;;;21.90;36.60;;;;;;5009214;28;20405;-54
2023/12/14 11:59:20;;;;;;;0.80;0.60;;;21.80;36.70;;;;;;5030281;28;20071;-56
2023/12/14 12:02:00;;;;;;;0.80;0.45;;;21.70;36.80;;;;;;5026373;28;20037;-56
2023/12/14 12:04:27;;;;;;;0.52;0.50;;;21.60;36.80;;;;;;5027995;28;21573;-56
2023/12/14 12:07:04;;;;;;;2.50;0.60;;;21.50;36.90;;;;;;5024072;28;20018;-56
2023/12/14 12:09:38;;;;;;;1.00;0.57;;;21.50;36.90;;;;;;5029713;28;20038;-53
2023/12/14 12:12:08;;;;;;;0.95;0.60;;;21.40;36.90;;;;;;5026330;28;20088;-54
2023/12/14 12:14:34;;;;;;;0.93;0.60;;;21.40;36.90;;;;;;5020490;28;20029;-57
2023/12/14 12:17:00;;;;;;;0.90;0.50;;;21.30;36.90;;;;;;5027545;28;20026;-56
2023/12/14 12:19:25;;;;;;;0.57;0.50;;;21.30;36.90;;;;;;5025644;28;20095;-54
2023/12/14 12:21:52;;;;;;;1.98;0.50;;;21.20;36.90;;;;;;5025658;28;20030;-55
2023/12/14 12:24:17;;;;;;;1.05;0.60;;;21.20;36.90;;;;;;5018701;28;20080;-55
2023/12/14 12:26:43;;;;;;;2.28;0.70;;;21.20;36.90;;;;;;5030179;28;20420;-58
2023/12/14 12:29:09;;;;;;;1.38;0.60;;;21.10;36.80;;;;;;5030165;28;20337;-58
2023/12/14 12:31:36;;;;;;;3.45;1.02;;;21.10;36.80;;;;;;5019624;28;20425;-56
2023/12/14 12:34:02;;;;;;;3.80;1.40;;;21.10;36.80;;;;;;5020561;28;20104;-54
2023/12/14 12:36:28;;;;;;;3.33;1.52;;;21.10;36.90;;;;;;5022841;28;20112;-57
2023/12/14 12:38:54;;;;;;;3.33;1.60;;;21.00;36.90;;;;;;5042816;28;20044;-55
2023/12/14 12:41:19;;;;;;;3.42;1.70;;;21.00;36.90;;;;;;5026771;28;20035;-59
2023/12/14 12:43:45;;;;;;;3.17;1.30;;;21.00;36.80;;;;;;5030796;28;20025;-57